Time;durP1;ratioP1;P1;durP2;ratioP2;P2;SDS_P1;SDS_P2;PMS_P1;PMS_P2;Temp;Humidity;BMP_temperature;BMP_pressure;BME280_temperature;BME280_humidity;BME280_pressure;Samples;Min_cycle;Max_cycle;Signal;HPM_P1;HPM_P2
2023/06/12 00:00:07;;;;;;;7.18;6.05;;;;;;;20.26;52.82;100259.56;4926017;28;20053;-70
2023/06/12 00:02:35;;;;;;;6.82;6.13;;;;;;;20.23;53.15;100253.59;4911532;29;20055;-71
2023/06/12 00:05:04;;;;;;;7.00;6.30;;;;;;;20.17;53.15;100263.03;4926556;29;20102;-69
2023/06/12 00:07:31;;;;;;;9.85;5.95;;;;;;;20.08;53.67;100266.56;4945892;28;20047;-71
2023/06/12 00:09:58;;;;;;;9.73;5.45;;;;;;;19.93;53.97;100257.16;4930929;29;20047;-70
2023/06/12 00:12:25;;;;;;;7.00;5.53;;;;;;;19.80;54.20;100243.97;4943925;29;20057;-68
2023/06/12 00:14:51;;;;;;;7.88;5.88;;;;;;;19.75;55.01;100259.63;4941599;28;20106;-69
2023/06/12 00:17:18;;;;;;;6.22;5.63;;;;;;;19.69;55.31;100267.34;4927951;28;20043;-72
2023/06/12 00:19:45;;;;;;;7.65;5.90;;;;;;;19.56;55.61;100265.75;4944683;28;20801;-70
2023/06/12 00:22:12;;;;;;;6.47;5.88;;;;;;;19.57;56.35;100277.34;4946732;28;20131;-70
2023/06/12 00:24:39;;;;;;;7.95;6.20;;;;;;;19.49;57.00;100274.44;4945896;28;20057;-70
2023/06/12 00:27:05;;;;;;;9.50;5.95;;;;;;;19.48;57.47;100272.72;4927252;29;20047;-70
2023/06/12 00:29:32;;;;;;;7.65;6.07;;;;;;;19.51;57.23;100275.19;4926710;29;20052;-70
2023/06/12 00:31:59;;;;;;;7.45;6.07;;;;;;;19.50;57.81;100273.50;4942310;28;20174;-70
2023/06/12 00:34:27;;;;;;;7.75;6.25;;;;;;;19.51;58.03;100273.38;4912432;28;20669;-71
2023/06/12 00:36:54;;;;;;;6.80;5.60;;;;;;;19.48;58.15;100273.59;4927642;29;20047;-70
2023/06/12 00:39:20;;;;;;;6.38;5.30;;;;;;;19.41;58.96;100277.75;4926971;29;20043;-70
2023/06/12 00:41:48;;;;;;;6.68;5.80;;;;;;;19.36;59.73;100273.78;4944766;28;20171;-70
2023/06/12 00:44:16;;;;;;;7.07;6.05;;;;;;;19.34;60.11;100273.06;4929449;28;20140;-70
2023/06/12 00:46:42;;;;;;;6.63;5.70;;;;;;;19.31;60.37;100270.63;4914750;28;20063;-70
2023/06/12 00:49:12;;;;;;;7.97;5.88;;;;;;;19.24;60.93;100268.47;4927476;29;20481;-70
2023/06/12 00:51:41;;;;;;;8.73;6.25;;;;;;;19.26;61.13;100265.66;4925374;29;20062;-69
2023/06/12 00:54:08;;;;;;;6.47;5.80;;;;;;;19.31;61.80;100276.84;4921730;29;20058;-70
2023/06/12 00:56:34;;;;;;;7.43;6.13;;;;;;;19.27;61.59;100265.53;4939972;29;20537;-70
2023/06/12 00:59:02;;;;;;;9.45;6.50;;;;;;;19.30;61.80;100272.47;4951472;28;20051;-70
2023/06/12 01:01:29;;;;;;;8.38;5.80;;;;;;;19.37;62.32;100270.94;4947715;28;20478;-70
2023/06/12 01:03:57;;;;;;;7.60;6.13;;;;;;;19.38;62.04;100272.66;4936665;28;20055;-69
2023/06/12 01:06:37;;;;;;;6.60;5.90;;;;;;;19.30;61.99;100274.31;4950521;28;20054;-70
2023/06/12 01:09:30;;;;;;;7.97;6.13;;;;;;;19.26;62.33;100269.19;4928503;28;20070;-70
2023/06/12 01:11:58;;;;;;;7.30;6.03;;;;;;;19.34;62.53;100270.38;4946079;28;20054;-70
2023/06/12 01:14:26;;;;;;;8.82;6.68;;;;;;;19.34;61.94;100263.19;4943505;28;20469;-70
2023/06/12 01:16:53;;;;;;;8.27;6.03;;;;;;;19.35;62.42;100261.34;4942529;28;20043;-70
2023/06/12 01:19:19;;;;;;;6.70;5.85;;;;;;;19.34;62.28;100271.22;4946142;28;20394;-69
2023/06/12 01:21:52;;;;;;;7.07;6.25;;;;;;;19.30;62.47;100263.56;4940769;28;20166;-70
2023/06/12 01:24:32;;;;;;;8.60;6.50;;;;;;;19.27;62.93;100265.53;4943226;28;20083;-70
2023/06/12 01:27:11;;;;;;;7.25;6.32;;;;;;;19.21;63.02;100266.03;4941128;28;20187;-70
2023/06/12 01:30:12;;;;;;;7.55;6.00;;;;;;;19.15;63.55;100268.41;4927558;29;20240;-70
2023/06/12 01:32:39;;;;;;;7.82;6.30;;;;;;;19.04;64.20;100252.38;4950917;28;20083;-71
2023/06/12 01:35:13;;;;;;;7.65;5.95;;;;;;;19.03;64.56;100264.06;4944913;28;20197;-70
2023/06/12 01:37:49;;;;;;;7.20;6.18;;;;;;;19.02;65.36;100262.38;4950622;28;20130;-69
2023/06/12 01:40:18;;;;;;;8.95;6.25;;;;;;;19.02;65.12;100265.06;4928304;28;20063;-69
2023/06/12 01:42:45;;;;;;;7.32;6.40;;;;;;;18.97;65.39;100268.13;4951461;28;20051;-69
2023/06/12 01:45:13;;;;;;;8.00;6.75;;;;;;;18.91;66.03;100269.47;4934573;28;20052;-70
2023/06/12 01:47:44;;;;;;;7.90;6.22;;;;;;;18.85;65.92;100263.78;4951088;28;20165;-70
2023/06/12 01:50:13;;;;;;;9.00;6.57;;;;;;;18.82;66.38;100272.09;4931895;29;20059;-70
2023/06/12 01:52:41;;;;;;;7.80;6.75;;;;;;;18.79;66.76;100270.50;4947843;29;20047;-71
2023/06/12 01:55:09;;;;;;;9.32;6.35;;;;;;;18.74;66.85;100269.16;4945595;28;20055;-70
2023/06/12 01:57:38;;;;;;;7.53;6.07;;;;;;;18.72;67.41;100272.00;4920084;28;20130;-71
2023/06/12 02:00:05;;;;;;;7.47;6.63;;;;;;;18.67;67.53;100270.66;4942569;28;20099;-70
2023/06/12 02:02:32;;;;;;;7.20;6.50;;;;;;;18.68;67.35;100277.75;4945180;28;20114;-71
2023/06/12 02:04:59;;;;;;;7.97;6.28;;;;;;;18.66;66.88;100272.50;4951713;28;20075;-70
2023/06/12 02:07:26;;;;;;;7.43;6.63;;;;;;;18.63;66.93;100267.38;4951583;28;20118;-71
2023/06/12 02:09:53;;;;;;;8.30;6.78;;;;;;;18.68;67.07;100278.59;4927036;28;20417;-71
2023/06/12 02:12:20;;;;;;;9.00;6.70;;;;;;;18.66;67.19;100285.06;4921980;28;20047;-71
2023/06/12 02:14:47;;;;;;;7.45;6.45;;;;;;;18.62;66.92;100280.91;4931521;29;20055;-70
2023/06/12 02:17:19;;;;;;;7.95;6.30;;;;;;;18.63;67.19;100286.16;4945555;28;20049;-70
2023/06/12 02:19:47;;;;;;;10.98;6.63;;;;;;;18.67;67.04;100286.75;4928076;29;20039;-71
2023/06/12 02:22:16;;;;;;;7.22;6.50;;;;;;;18.68;67.25;100293.84;4933144;29;20563;-71
2023/06/12 02:24:44;;;;;;;7.35;6.63;;;;;;;18.65;67.80;100294.06;4945349;28;20043;-70
2023/06/12 02:27:12;;;;;;;7.45;6.72;;;;;;;18.65;67.12;100286.88;4926005;29;20146;-70
2023/06/12 02:29:40;;;;;;;7.25;6.13;;;;;;;18.62;67.49;100294.31;4946494;28;20047;-70
2023/06/12 02:32:06;;;;;;;7.80;6.47;;;;;;;18.52;67.53;100281.66;4925846;29;20066;-71
2023/06/12 02:34:33;;;;;;;7.78;6.75;;;;;;;18.58;67.83;100297.25;4942938;28;20517;-70
2023/06/12 02:37:00;;;;;;;8.88;6.03;;;;;;;18.52;66.99;100284.31;4944565;28;20051;-70
2023/06/12 02:39:26;;;;;;;7.53;6.72;;;;;;;18.54;67.30;100292.25;4939342;28;20075;-71
2023/06/12 02:41:55;;;;;;;8.25;6.63;;;;;;;18.54;66.60;100285.06;4911149;29;20044;-70
2023/06/12 02:44:22;;;;;;;7.82;6.22;;;;;;;18.61;66.60;100300.66;4946740;28;20061;-71
2023/06/12 02:46:54;;;;;;;6.80;6.10;;;;;;;18.67;65.21;100295.66;4944245;28;20454;-69
2023/06/12 02:49:24;;;;;;;7.47;6.35;;;;;;;18.66;65.84;100298.47;4933687;29;20058;-70
2023/06/12 02:51:51;;;;;;;8.63;6.65;;;;;;;18.55;65.18;100289.44;4946835;28;20055;-70
2023/06/12 02:54:20;;;;;;;7.90;6.50;;;;;;;18.57;65.77;100297.38;4950567;28;20043;-71
2023/06/12 02:56:49;;;;;;;8.85;6.43;;;;;;;18.52;65.65;100296.88;4940272;28;20113;-70
2023/06/12 02:59:18;;;;;;;6.65;6.05;;;;;;;18.49;65.55;100295.28;4932611;29;20045;-70
2023/06/12 03:01:45;;;;;;;7.30;6.60;;;;;;;18.54;64.19;100294.94;4938150;29;20062;-70
2023/06/12 03:04:20;;;;;;;6.78;6.15;;;;;;;18.57;64.48;100298.19;4936282;29;20102;-69
2023/06/12 03:06:53;;;;;;;8.27;6.50;;;;;;;18.56;63.88;100293.84;4942119;29;20058;-71
2023/06/12 03:09:22;;;;;;;7.55;6.30;;;;;;;18.55;64.37;100288.59;4943024;28;20151;-70
2023/06/12 03:11:54;;;;;;;6.50;5.88;;;;;;;18.61;64.08;100300.66;4932578;28;20623;-71
2023/06/12 03:14:24;;;;;;;7.93;6.18;;;;;;;18.61;64.19;100303.34;4927616;28;20740;-69
2023/06/12 03:16:51;;;;;;;7.93;6.68;;;;;;;18.61;61.89;100308.72;4928577;28;20047;-71
2023/06/12 03:19:18;;;;;;;6.82;6.13;;;;;;;18.66;63.45;100306.50;4944134;28;20044;-70
2023/06/12 03:21:44;;;;;;;7.55;6.22;;;;;;;18.68;62.57;100309.94;4945234;28;20580;-69
2023/06/12 03:24:13;;;;;;;7.13;6.43;;;;;;;18.69;61.66;100315.16;4930189;28;20088;-70
2023/06/12 03:26:45;;;;;;;6.68;5.95;;;;;;;18.76;61.20;100313.66;4945989;28;20043;-69
2023/06/12 03:29:13;;;;;;;7.43;6.10;;;;;;;18.76;61.01;100302.09;4918875;28;20413;-69
2023/06/12 03:31:42;;;;;;;7.13;6.30;;;;;;;18.78;61.00;100305.50;4927291;28;20075;-70
2023/06/12 03:34:09;;;;;;;6.78;6.03;;;;;;;18.83;60.57;100317.56;4943727;28;20130;-69
2023/06/12 03:36:37;;;;;;;6.93;6.20;;;;;;;18.79;61.25;100313.41;4934387;29;20057;-69
2023/06/12 03:39:05;;;;;;;7.72;6.15;;;;;;;18.79;61.67;100315.25;4929437;28;20036;-69
2023/06/12 03:41:34;;;;;;;6.90;6.20;;;;;;;18.76;62.03;100326.22;4934450;28;20122;-70
2023/06/12 03:44:05;;;;;;;6.32;5.72;;;;;;;18.76;61.69;100312.81;4953593;28;20510;-70
2023/06/12 03:46:32;;;;;;;6.50;5.90;;;;;;;18.75;62.68;100320.00;4951856;28;20099;-70
2023/06/12 03:49:00;;;;;;;6.80;6.10;;;;;;;18.73;63.04;100321.13;4932676;29;20051;-70
2023/06/12 03:51:27;;;;;;;6.80;6.10;;;;;;;18.74;62.88;100333.53;4936350;29;20051;-70
2023/06/12 03:53:54;;;;;;;7.82;6.50;;;;;;;18.70;63.04;100330.28;4950546;29;20066;-71
2023/06/12 03:56:21;;;;;;;7.28;6.32;;;;;;;18.72;63.41;100328.34;4957278;28;20047;-70
2023/06/12 03:58:49;;;;;;;8.57;6.25;;;;;;;18.61;63.96;100322.13;4947770;28;20043;-70
2023/06/12 04:01:17;;;;;;;8.57;6.18;;;;;;;18.63;64.74;100333.56;4927020;29;20079;-69
2023/06/12 04:03:48;;;;;;;6.72;6.03;;;;;;;18.68;64.40;100351.00;4938318;29;20043;-69
2023/06/12 04:06:15;;;;;;;6.93;6.20;;;;;;;18.63;64.89;100344.31;4939157;29;20075;-69
2023/06/12 04:08:44;;;;;;;7.38;6.20;;;;;;;18.63;65.51;100344.31;4954828;28;20157;-68
2023/06/12 04:11:14;;;;;;;10.70;6.07;;;;;;;18.62;64.96;100348.81;4953578;29;20055;-69
2023/06/12 04:13:41;;;;;;;7.13;6.20;;;;;;;18.65;66.20;100350.41;4949331;28;20047;-69
2023/06/12 04:16:08;;;;;;;8.00;6.28;;;;;;;18.60;65.75;100358.81;4947954;28;20331;-69
2023/06/12 04:18:37;;;;;;;10.48;6.57;;;;;;;18.60;64.91;100361.50;4915033;29;20051;-70
2023/06/12 04:21:05;;;;;;;10.85;6.45;;;;;;;18.62;66.70;100358.69;4945462;29;20067;-70
2023/06/12 04:23:37;;;;;;;8.02;6.53;;;;;;;18.66;65.92;100361.00;4934540;29;20047;-70
2023/06/12 04:26:05;;;;;;;6.85;6.18;;;;;;;18.67;65.92;100365.41;4931430;29;20047;-71
2023/06/12 04:28:36;;;;;;;7.82;6.28;;;;;;;18.66;66.15;100360.16;4946761;28;20039;-69
2023/06/12 04:31:03;;;;;;;8.95;6.90;;;;;;;18.79;66.37;100360.84;4929933;29;20070;-70
2023/06/12 04:33:32;;;;;;;8.30;6.20;;;;;;;18.83;66.73;100360.50;4947879;28;20055;-72
2023/06/12 04:36:02;;;;;;;7.20;6.20;;;;;;;18.93;64.86;100360.56;4934302;28;20122;-69
2023/06/12 04:38:32;;;;;;;7.78;6.28;;;;;;;18.95;64.70;100371.19;4946655;28;20051;-70
2023/06/12 04:40:59;;;;;;;7.20;5.93;;;;;;;18.98;65.22;100357.53;4947922;28;20075;-70
2023/06/12 04:43:29;;;;;;;7.53;6.53;;;;;;;19.03;65.36;100361.53;4945909;29;20425;-71
2023/06/12 04:45:56;;;;;;;7.18;6.20;;;;;;;19.02;65.67;100349.09;4949672;28;20047;-70
2023/06/12 04:48:24;;;;;;;8.00;6.03;;;;;;;19.03;66.08;100353.50;4948853;28;20051;-69
2023/06/12 04:50:53;;;;;;;10.18;7.00;;;;;;;19.08;66.50;100355.78;4932824;29;20050;-71
2023/06/12 04:53:29;;;;;;;8.88;6.25;;;;;;;19.06;66.76;100353.22;4905445;29;20046;-69
2023/06/12 04:55:58;;;;;;;7.68;6.38;;;;;;;19.20;65.57;100355.59;4930140;28;20039;-71
2023/06/12 04:58:27;;;;;;;7.00;6.28;;;;;;;19.30;64.87;100352.16;4946261;28;20394;-71
2023/06/12 05:00:55;;;;;;;8.20;6.30;;;;;;;19.31;66.37;100341.28;4947263;28;20043;-70
2023/06/12 05:03:23;;;;;;;7.07;6.15;;;;;;;19.42;65.34;100357.34;4946449;28;20054;-70
2023/06/12 05:05:55;;;;;;;6.78;6.10;;;;;;;19.52;62.30;100354.75;4944519;28;20063;-71
2023/06/12 05:08:22;;;;;;;7.90;6.38;;;;;;;19.67;60.75;100358.84;4951664;29;20593;-70
2023/06/12 05:10:49;;;;;;;7.45;5.97;;;;;;;19.77;61.05;100359.75;4930313;29;20051;-71
2023/06/12 05:13:16;;;;;;;7.78;6.57;;;;;;;19.86;61.65;100366.16;4950046;28;20043;-70
2023/06/12 05:15:44;;;;;;;7.88;6.43;;;;;;;19.97;60.08;100363.44;4926591;29;20047;-70
2023/06/12 05:18:11;;;;;;;8.82;6.25;;;;;;;20.04;58.56;100355.66;4950138;28;20058;-71
2023/06/12 05:20:37;;;;;;;8.05;6.75;;;;;;;20.15;58.07;100372.56;4930345;29;20142;-69
2023/06/12 05:23:05;;;;;;;8.82;6.22;;;;;;;20.19;57.90;100365.09;4950012;28;20093;-70
2023/06/12 05:25:32;;;;;;;8.23;6.60;;;;;;;20.27;57.68;100376.03;4934749;29;20055;-70
2023/06/12 05:27:59;;;;;;;8.10;6.13;;;;;;;20.23;57.57;100361.16;4934157;29;21262;-69
2023/06/12 05:30:27;;;;;;;6.88;6.18;;;;;;;20.26;58.29;100377.88;4954437;28;20089;-70
2023/06/12 05:33:02;;;;;;;8.15;6.63;;;;;;;20.22;58.13;100373.72;4953628;28;20062;-70
2023/06/12 05:35:34;;;;;;;9.52;6.80;;;;;;;20.16;58.64;100370.72;4949833;28;20489;-72
2023/06/12 05:38:00;;;;;;;9.88;6.50;;;;;;;20.18;59.39;100368.75;4933683;29;20047;-70
2023/06/12 05:40:27;;;;;;;8.60;6.50;;;;;;;20.22;58.80;100372.88;4930556;28;20051;-69
2023/06/12 05:42:56;;;;;;;7.22;6.25;;;;;;;20.24;59.12;100378.97;4948994;28;20051;-70
2023/06/12 05:45:22;;;;;;;8.20;6.30;;;;;;;20.16;59.00;100357.28;4933823;29;20046;-70
2023/06/12 05:47:50;;;;;;;8.15;6.80;;;;;;;20.28;58.60;100366.97;4932933;28;20085;-70
2023/06/12 05:50:18;;;;;;;10.45;6.55;;;;;;;20.40;58.59;100374.00;4933682;29;20118;-71
2023/06/12 05:52:45;;;;;;;7.93;6.05;;;;;;;20.55;59.72;100371.78;4919042;29;20082;-71
2023/06/12 05:55:14;;;;;;;9.27;6.35;;;;;;;20.61;61.33;100361.34;4948359;28;20110;-71
2023/06/12 05:57:42;;;;;;;9.77;6.45;;;;;;;20.78;61.26;100378.63;4923694;28;20365;-71
2023/06/12 06:00:12;;;;;;;8.68;6.45;;;;;;;20.95;58.43;100377.97;4928357;29;20050;-70
2023/06/12 06:02:39;;;;;;;7.03;5.97;;;;;;;21.10;58.79;100378.41;4948176;28;20075;-70
2023/06/12 06:05:09;;;;;;;9.73;6.60;;;;;;;21.24;58.36;100369.13;4949763;28;20066;-70
2023/06/12 06:07:38;;;;;;;6.72;6.10;;;;;;;21.42;57.67;100371.94;4947410;28;20043;-70
2023/06/12 06:10:06;;;;;;;7.53;5.97;;;;;;;21.60;56.94;100381.03;4941866;28;20054;-71
2023/06/12 06:12:32;;;;;;;8.60;6.50;;;;;;;21.75;56.99;100384.13;4950252;28;20051;-69
2023/06/12 06:15:00;;;;;;;7.80;6.47;;;;;;;21.88;56.52;100376.63;4936800;29;20054;-71
2023/06/12 06:17:27;;;;;;;6.38;5.68;;;;;;;22.14;55.92;100376.84;4926407;29;20049;-70
2023/06/12 06:19:56;;;;;;;7.13;6.25;;;;;;;22.53;54.35;100381.09;4932648;28;20050;-70
2023/06/12 06:22:24;;;;;;;10.38;6.70;;;;;;;22.85;53.39;100377.97;4947963;28;20051;-71
2023/06/12 06:24:54;;;;;;;10.88;6.60;;;;;;;23.29;52.96;100389.78;4953265;28;20067;-69
2023/06/12 06:27:21;;;;;;;8.07;7.20;;;;;;;23.66;52.04;100386.09;4937871;29;20107;-71
2023/06/12 06:29:48;;;;;;;7.18;6.07;;;;;;;24.18;49.48;100375.31;4935135;28;20145;-70
2023/06/12 06:32:14;;;;;;;9.77;6.55;;;;;;;24.64;46.83;100383.03;4924906;29;20067;-70
2023/06/12 06:34:43;;;;;;;7.63;6.63;;;;;;;25.03;45.62;100382.50;4928382;29;20743;-71
2023/06/12 06:37:10;;;;;;;7.82;6.43;;;;;;;25.39;45.01;100386.66;4918958;29;20048;-71
2023/06/12 06:39:39;;;;;;;9.23;6.30;;;;;;;25.55;44.56;100384.97;4931245;29;20122;-70
2023/06/12 06:42:06;;;;;;;8.95;6.32;;;;;;;25.64;43.69;100392.13;4932039;29;20048;-71
2023/06/12 06:44:34;;;;;;;7.25;5.88;;;;;;;25.73;44.21;100382.97;4916328;29;20130;-71
2023/06/12 06:47:00;;;;;;;6.63;6.03;;;;;;;26.05;43.36;100384.81;4916417;29;20055;-71
2023/06/12 06:49:29;;;;;;;7.22;6.28;;;;;;;26.41;42.63;100377.13;4914138;29;20130;-71
2023/06/12 06:51:56;;;;;;;7.97;5.60;;;;;;;26.64;41.59;100388.91;4933614;29;20044;-70
2023/06/12 06:54:23;;;;;;;10.52;6.75;;;;;;;26.92;40.80;100391.19;4937057;29;20054;-70
2023/06/12 06:56:51;;;;;;;7.22;6.13;;;;;;;27.14;41.07;100401.28;4930719;29;20455;-71
2023/06/12 06:59:18;;;;;;;6.43;5.78;;;;;;;27.22;39.98;100401.25;4927356;29;20043;-71
2023/06/12 07:01:45;;;;;;;13.85;7.20;;;;;;;27.40;40.69;100390.91;4924528;29;20062;-70
2023/06/12 07:04:15;;;;;;;6.70;5.88;;;;;;;27.53;38.50;100399.31;4902752;29;20387;-69
2023/06/12 07:06:42;;;;;;;6.57;5.90;;;;;;;27.37;38.15;100393.16;4926103;29;20066;-71
2023/06/12 07:09:09;;;;;;;8.55;6.07;;;;;;;27.31;39.00;100392.00;4924718;29;20434;-70
2023/06/12 07:11:35;;;;;;;8.50;5.93;;;;;;;27.30;38.42;100382.13;4913527;29;20055;-71
2023/06/12 07:14:02;;;;;;;6.10;5.50;;;;;;;27.45;39.18;100391.22;4920012;29;20110;-70
2023/06/12 07:16:29;;;;;;;6.65;5.30;;;;;;;27.67;37.54;100394.16;4930189;28;20119;-71
2023/06/12 07:18:58;;;;;;;6.43;5.45;;;;;;;27.71;37.30;100398.19;4932798;29;20522;-70
2023/06/12 07:21:26;;;;;;;6.97;5.55;;;;;;;27.67;37.68;100386.00;4930031;29;20043;-70
2023/06/12 07:23:53;;;;;;;7.25;5.70;;;;;;;27.77;36.62;100384.69;4931607;29;20047;-71
2023/06/12 07:26:19;;;;;;;5.82;5.30;;;;;;;27.88;37.24;100391.56;4907326;29;20047;-71
2023/06/12 07:28:54;;;;;;;6.75;6.03;;;;;;;27.83;37.80;100385.84;4927523;29;20115;-71
2023/06/12 07:31:26;;;;;;;5.78;5.28;;;;;;;27.93;36.47;100389.16;4909033;29;20402;-70
2023/06/12 07:33:56;;;;;;;6.53;5.93;;;;;;;28.04;36.94;100388.69;4939416;28;20059;-71
2023/06/12 07:36:23;;;;;;;6.18;5.68;;;;;;;27.99;36.37;100388.41;4926375;28;20643;-69
2023/06/12 07:38:50;;;;;;;5.97;5.47;;;;;;;27.97;36.53;100395.06;4910731;28;20063;-70
2023/06/12 07:41:17;;;;;;;7.15;5.93;;;;;;;27.84;37.69;100387.53;4927598;29;20071;-70
2023/06/12 07:43:44;;;;;;;6.82;5.70;;;;;;;27.89;36.77;100387.81;4943389;28;20047;-70
2023/06/12 07:46:14;;;;;;;7.13;5.97;;;;;;;27.95;36.96;100381.66;4945771;28;20510;-70
2023/06/12 07:48:40;;;;;;;6.00;5.40;;;;;;;28.23;36.26;100384.63;4931582;29;20059;-70
2023/06/12 07:51:07;;;;;;;7.88;5.90;;;;;;;28.43;37.33;100382.19;4944989;28;20501;-70
2023/06/12 07:53:34;;;;;;;6.32;5.70;;;;;;;28.59;35.75;100384.72;4944844;29;20478;-70
2023/06/12 07:56:06;;;;;;;6.13;5.63;;;;;;;28.67;35.51;100375.59;4944058;28;20047;-70
2023/06/12 07:58:37;;;;;;;7.72;5.85;;;;;;;28.56;35.79;100376.94;4945574;28;20130;-69
2023/06/12 08:01:04;;;;;;;6.93;6.03;;;;;;;28.49;36.07;100365.94;4941070;28;20067;-71
2023/06/12 08:03:38;;;;;;;7.30;6.10;;;;;;;28.46;37.50;100368.22;4948495;28;20143;-70
2023/06/12 08:06:09;;;;;;;8.95;5.82;;;;;;;28.53;36.61;100364.53;4946451;28;20102;-71
2023/06/12 08:08:44;;;;;;;6.18;5.40;;;;;;;28.50;37.99;100361.31;4952023;28;20055;-70
2023/06/12 08:11:11;;;;;;;6.65;5.68;;;;;;;28.33;36.30;100359.84;4946432;29;20103;-71
2023/06/12 08:13:40;;;;;;;7.88;5.78;;;;;;;28.12;38.07;100358.69;4947961;28;20055;-71
2023/06/12 08:16:07;;;;;;;6.63;5.60;;;;;;;28.36;37.07;100359.47;4950920;29;20165;-71
2023/06/12 08:18:34;;;;;;;6.32;5.55;;;;;;;28.44;36.47;100357.50;4950994;28;20111;-70
2023/06/12 08:21:01;;;;;;;10.10;6.13;;;;;;;28.48;37.65;100361.53;4956353;28;20043;-70
2023/06/12 08:23:28;;;;;;;7.60;6.00;;;;;;;28.74;37.30;100355.59;4937917;29;20055;-71
2023/06/12 08:25:56;;;;;;;6.45;5.68;;;;;;;28.79;36.13;100349.56;4935098;29;20548;-70
2023/06/12 08:28:24;;;;;;;7.38;5.55;;;;;;;28.77;36.57;100348.91;4934208;28;20649;-71
2023/06/12 08:30:57;;;;;;;6.15;5.55;;;;;;;28.84;35.83;100341.69;4946347;28;20055;-71
2023/06/12 08:33:25;;;;;;;8.68;5.75;;;;;;;28.80;36.04;100338.50;4935325;29;20086;-70
2023/06/12 08:35:52;;;;;;;6.30;5.70;;;;;;;28.78;36.05;100351.44;4918387;29;20082;-70
2023/06/12 08:38:19;;;;;;;9.77;5.38;;;;;;;28.79;36.00;100344.13;4942534;28;20521;-71
2023/06/12 08:40:47;;;;;;;6.72;5.93;;;;;;;28.82;35.65;100346.47;4952129;28;20134;-71
2023/06/12 08:43:14;;;;;;;7.18;5.78;;;;;;;28.85;35.99;100346.94;4949534;28;20143;-71
2023/06/12 08:45:47;;;;;;;7.60;5.90;;;;;;;28.63;36.13;100345.19;4932767;28;20437;-71
2023/06/12 08:48:17;;;;;;;8.70;6.38;;;;;;;28.43;36.19;100341.34;4949443;28;20074;-71
2023/06/12 08:50:44;;;;;;;6.60;5.83;;;;;;;28.47;36.27;100335.34;4962369;28;20045;-70
2023/06/12 08:53:12;;;;;;;6.85;6.15;;;;;;;28.76;36.55;100333.59;4940397;29;20078;-70
2023/06/12 08:55:39;;;;;;;7.72;5.50;;;;;;;28.81;35.42;100329.28;4953978;28;20051;-71
2023/06/12 08:58:08;;;;;;;7.75;5.90;;;;;;;28.88;35.86;100326.63;4952945;29;20043;-70
2023/06/12 09:00:36;;;;;;;7.78;5.97;;;;;;;28.91;35.96;100318.94;4955747;29;20055;-69
2023/06/12 09:03:07;;;;;;;7.43;5.80;;;;;;;28.95;35.23;100331.16;4956861;28;20043;-71
2023/06/12 09:05:38;;;;;;;7.45;5.97;;;;;;;28.79;35.17;100316.88;4963106;29;20111;-70
2023/06/12 09:08:06;;;;;;;7.60;6.20;;;;;;;28.50;36.37;100320.47;4953051;29;20047;-70
2023/06/12 09:10:34;;;;;;;8.48;6.32;;;;;;;28.33;36.77;100305.41;4955557;28;20502;-70
2023/06/12 09:13:10;;;;;;;7.27;6.03;;;;;;;27.98;37.72;100312.38;4927045;29;20098;-71
2023/06/12 09:15:38;;;;;;;7.43;6.38;;;;;;;28.02;37.74;100311.00;4939748;28;20475;-70
2023/06/12 09:18:10;;;;;;;8.75;5.68;;;;;;;28.08;37.44;100310.22;4949274;28;20043;-70
2023/06/12 09:20:39;;;;;;;7.78;6.20;;;;;;;28.19;36.67;100307.91;4931477;29;20051;-70
2023/06/12 09:23:11;;;;;;;6.55;5.70;;;;;;;28.33;37.54;100303.50;4953773;28;20633;-71
2023/06/12 09:25:41;;;;;;;7.00;6.28;;;;;;;28.17;37.53;100293.63;4940014;29;20138;-70
2023/06/12 09:28:36;;;;;;;6.70;6.07;;;;;;;28.15;37.21;100314.75;4953814;28;20074;-72
2023/06/12 09:31:04;;;;;;;6.97;6.28;;;;;;;28.27;36.49;100316.00;4951354;28;20119;-73
2023/06/12 09:33:32;;;;;;;6.95;6.25;;;;;;;28.34;36.53;100304.31;4929605;29;20082;-71
2023/06/12 09:35:59;;;;;;;9.70;6.15;;;;;;;28.44;35.48;100318.53;4935460;28;20055;-72
2023/06/12 09:38:31;;;;;;;6.72;5.85;;;;;;;28.39;34.56;100312.78;4956045;28;20146;-72
2023/06/12 09:41:01;;;;;;;6.90;6.20;;;;;;;28.36;34.77;100315.88;4940563;29;20062;-72
2023/06/12 09:43:28;;;;;;;6.65;6.05;;;;;;;28.30;34.38;100301.16;4942639;28;20047;-72
2023/06/12 09:45:55;;;;;;;6.90;6.18;;;;;;;28.31;34.10;100297.41;4950770;28;20043;-72
2023/06/12 09:48:22;;;;;;;9.02;6.35;;;;;;;28.45;34.22;100310.16;4945863;29;20059;-71
2023/06/12 09:50:48;;;;;;;6.50;5.90;;;;;;;28.37;33.83;100312.97;4940794;28;20525;-71
2023/06/12 09:53:20;;;;;;;6.53;5.90;;;;;;;28.19;34.23;100313.34;4946394;29;20055;-71
2023/06/12 09:55:49;;;;;;;6.60;6.00;;;;;;;28.09;35.40;100296.44;4950926;28;20054;-72
2023/06/12 09:58:17;;;;;;;8.13;6.35;;;;;;;28.03;35.11;100302.63;4957721;28;20070;-69
2023/06/12 10:00:46;;;;;;;6.65;6.07;;;;;;;27.96;34.61;100295.41;4959653;29;20110;-70
2023/06/12 10:03:15;;;;;;;7.32;6.00;;;;;;;27.72;34.34;100283.72;4962008;28;20159;-70
2023/06/12 10:05:51;;;;;;;8.05;6.00;;;;;;;27.62;34.57;100287.75;4957405;28;20043;-71
2023/06/12 10:08:18;;;;;;;7.10;6.40;;;;;;;27.72;33.92;100285.59;4959012;28;20126;-70
2023/06/12 10:10:45;;;;;;;7.70;6.40;;;;;;;27.90;33.71;100283.38;4927036;29;20039;-72
2023/06/12 10:13:14;;;;;;;9.82;5.65;;;;;;;27.97;32.33;100289.78;4959776;29;20601;-72
2023/06/12 10:15:42;;;;;;;9.70;5.82;;;;;;;28.05;31.63;100295.09;4935831;29;20057;-71
2023/06/12 10:18:11;;;;;;;6.72;5.68;;;;;;;28.16;31.12;100278.31;4937980;29;20135;-71
2023/06/12 10:20:42;;;;;;;6.40;5.78;;;;;;;27.99;32.15;100284.16;4950505;28;20067;-71
2023/06/12 10:23:10;;;;;;;8.05;7.25;;;;;;;28.05;32.73;100289.66;4947892;28;20058;-71
2023/06/12 10:25:38;;;;;;;5.97;5.47;;;;;;;27.99;30.96;100290.44;4934153;28;20166;-71
2023/06/12 10:28:06;;;;;;;6.50;5.80;;;;;;;27.75;31.83;100280.63;4948514;28;20059;-71
2023/06/12 10:30:34;;;;;;;7.63;5.90;;;;;;;27.86;31.91;100288.34;4946946;28;20065;-71
2023/06/12 10:33:13;;;;;;;6.10;5.50;;;;;;;27.81;30.66;100279.91;4894862;28;1106499;-71
2023/06/12 10:35:40;;;;;;;6.60;5.72;;;;;;;27.55;30.67;100274.84;4924289;28;20531;-72
2023/06/12 10:38:12;;;;;;;9.55;5.95;;;;;;;27.28;30.69;100275.44;4934046;29;20062;-71
2023/06/12 10:40:40;;;;;;;6.53;5.93;;;;;;;27.17;30.44;100273.16;4932130;29;20198;-71
2023/06/12 10:43:21;;;;;;;7.22;6.15;;;;;;;27.35;30.37;100275.56;4933248;29;20051;-71
2023/06/12 10:45:57;;;;;;;8.38;6.13;;;;;;;27.64;30.08;100275.66;4929081;28;20047;-72
2023/06/12 10:48:27;;;;;;;7.03;6.32;;;;;;;27.78;29.26;100273.97;4934445;29;20501;-71
2023/06/12 10:50:56;;;;;;;7.15;6.28;;;;;;;27.65;29.46;100265.63;4951938;28;20102;-72
2023/06/12 10:53:31;;;;;;;7.15;6.20;;;;;;;27.50;30.62;100250.09;4933643;29;20043;-71
2023/06/12 10:56:07;;;;;;;6.68;6.07;;;;;;;27.43;30.73;100256.44;4928478;28;20158;-73
2023/06/12 10:58:40;;;;;;;8.05;5.90;;;;;;;27.44;31.33;100261.69;4923131;29;20051;-71
2023/06/12 11:01:14;;;;;;;8.38;6.32;;;;;;;27.64;31.12;100259.34;4952628;28;20062;-72
2023/06/12 11:03:43;;;;;;;6.45;5.88;;;;;;;27.85;31.05;100259.47;4954917;28;20097;-69
2023/06/12 11:06:15;;;;;;;7.75;5.97;;;;;;;27.99;29.54;100257.78;4945099;28;20105;-74
2023/06/12 11:08:48;;;;;;;8.23;6.00;;;;;;;28.18;29.18;100250.88;4920652;28;20039;-71
2023/06/12 11:11:18;;;;;;;7.03;6.25;;;;;;;28.32;28.98;100244.63;4934470;28;20043;-72
2023/06/12 11:13:46;;;;;;;6.53;5.93;;;;;;;28.43;30.02;100246.84;4945655;28;20106;-72
2023/06/12 11:16:15;;;;;;;7.45;5.55;;;;;;;28.21;30.54;100253.25;4932053;29;20083;-74
2023/06/12 11:18:43;;;;;;;7.57;6.15;;;;;;;27.97;30.80;100259.84;4946315;28;20039;-72
2023/06/12 11:21:11;;;;;;;6.65;5.80;;;;;;;27.96;30.14;100252.69;4948520;28;20461;-71
2023/06/12 11:23:42;;;;;;;6.70;5.88;;;;;;;27.97;30.21;100254.38;4952338;28;20043;-72
2023/06/12 11:26:10;;;;;;;11.32;6.85;;;;;;;28.06;31.46;100247.81;4946558;28;20054;-73
2023/06/12 11:28:37;;;;;;;8.48;6.35;;;;;;;27.81;31.10;100246.41;4929609;28;20051;-72
2023/06/12 11:31:07;;;;;;;9.10;6.60;;;;;;;27.34;31.23;100227.66;4923880;29;20051;-72